Avinger, TX

7:22 AM CDT on September 04, 2015 (GMT -0500)
Jenkins | | Change Station
CLOSE
Current Station
Personal Weather Station
Location: Daingerfield, TX
Elevation: 344 ft
Nearby Weather Stations

Elev 344 ft 32.96 °N, 94.74 °W | Updated 12 minutes ago

Mostly Cloudy
Mostly Cloudy
73.9 °F
Feels Like 70 °F
N
0.0
Wind Variable Wind from NE

Today
High -- | Low -- °F
--% Chance of Precip.
Yesterday
High -- | Low -- °F
Precip. -- in
6:54 AM 7:39 PM
Waning Gibbous, 60% visible
Pressure 29.97 in
Visibility 10.0 miles
Clouds Scattered Clouds 11000 ft
Heat Index 70 °F
Dew Point 73 °F
Humidity 98%
Rainfall 0.00 in
Snow Depth Not available.
UV 0 out of 12
Pollen 9.00 out of 12
Air Quality Not available.
Flu Activity Not available.
METAR KJXI 041155Z AUTO 00000KT 10SM SCT110 21/21 A2997 RMK AO2 T02140208 10250 20213
Pressure 29.97 in
Visibility 10.0 miles
Clouds Scattered Clouds 11000 ft
Heat Index 70 °F
Dew Point 73 °F
Humidity 98%
Rainfall 0.00 in
Snow Depth Not available.
UV 0 out of 12
Pollen 9.00 out of 12
Air Quality Not available.
Flu Activity Not available.
METAR KJXI 041155Z AUTO 00000KT 10SM SCT110 21/21 A2997 RMK AO2 T02140208 10250 20213

10-Day Weather Forecast

×

Almanac

Astronomy

Sep. 04, 2015 Rise Set
Actual Time
Civil Twilight
Nautical Twilight
Astronomical Twilight
Moon
Length of Visible Light
Length of Day
Tomorrow will be .
, % of the Moon is Illuminated

Today's Extremes

State Highs State Lows

Community

WunderPhotos

Upload Photos

1,852,160 photos uploaded!

WunderBlogs® & News

Nearby

Air Quality

  Air Quality AQ Index Pollutant
Not available.

Snow Depth

Station Depth Elevation

Earthquake Activity

City Distance Mag. Time & Date
Minimum magnitude displayed is 2.5.

Coastal Water Temperatures

Place Temperature

Stations

Nearby Weather Stations

Station Location Temp. Windchill Dew Point Humidity Wind Precip. Elev Updated Type